createdAt,value
2022-11-03T00:01:58.430Z,9.25
2022-11-03T00:04:25.122Z,9.28
2022-11-03T00:06:53.707Z,9.24
2022-11-03T00:09:21.619Z,9.19
2022-11-03T00:11:50.608Z,9.25
2022-11-03T00:14:17.429Z,9.30
2022-11-03T00:16:44.178Z,9.23
2022-11-03T00:19:11.436Z,9.21
2022-11-03T00:21:38.216Z,9.16
2022-11-03T00:24:05.304Z,9.23
2022-11-03T00:26:33.313Z,9.30
2022-11-03T00:29:07.835Z,9.29
2022-11-03T00:31:35.946Z,9.17
2022-11-03T00:34:03.329Z,9.15
2022-11-03T00:36:38.536Z,9.21
2022-11-03T00:39:05.875Z,9.16
2022-11-03T00:41:32.804Z,9.29
2022-11-03T00:43:59.587Z,9.19
2022-11-03T00:46:26.785Z,9.24
2022-11-03T00:48:53.260Z,9.27
2022-11-03T00:51:24.826Z,9.39
2022-11-03T00:53:59.210Z,9.37
2022-11-03T00:56:33.414Z,9.32
2022-11-03T00:59:01.024Z,9.27
2022-11-03T01:01:32.767Z,9.31
2022-11-03T01:04:17.664Z,9.37
2022-11-03T01:06:52.010Z,9.40
2022-11-03T01:09:22.543Z,9.35
2022-11-03T01:12:11.465Z,9.43
2022-11-03T01:14:48.968Z,9.41
2022-11-03T01:17:21.352Z,9.46
2022-11-03T01:19:47.924Z,9.48
2022-11-03T01:22:15.281Z,9.46
2022-11-03T01:24:42.456Z,9.47
2022-11-03T01:27:20.494Z,9.42
2022-11-03T01:29:46.959Z,9.41
2022-11-03T01:32:13.684Z,9.53
2022-11-03T01:34:40.191Z,9.50
2022-11-03T01:37:07.758Z,9.49
2022-11-03T01:39:34.264Z,9.51
2022-11-03T01:42:00.916Z,9.52
2022-11-03T01:44:35.773Z,9.56
2022-11-03T01:47:07.555Z,9.46
2022-11-03T01:49:42.367Z,9.45
2022-11-03T01:52:28.100Z,9.46
2022-11-03T01:55:02.367Z,9.37
2022-11-03T01:57:34.823Z,9.40
2022-11-03T02:00:01.580Z,9.39
2022-11-03T02:02:28.545Z,9.33
2022-11-03T02:04:56.112Z,9.33
2022-11-03T02:07:26.408Z,9.31
2022-11-03T02:09:52.932Z,9.33
2022-11-03T02:12:21.356Z,9.37
2022-11-03T02:15:04.703Z,9.42
2022-11-03T02:17:32.710Z,9.39
2022-11-03T02:20:05.474Z,9.33
2022-11-03T02:22:57.209Z,9.45
2022-11-03T02:25:41.879Z,9.32
2022-11-03T02:28:08.580Z,9.40
2022-11-03T02:30:40.077Z,9.40
2022-11-03T02:33:20.658Z,9.32
2022-11-03T02:35:53.178Z,9.37
2022-11-03T02:38:20.854Z,9.47
2022-11-03T02:40:50.387Z,9.32
2022-11-03T02:43:17.014Z,9.33
2022-11-03T02:45:43.892Z,9.29
2022-11-03T02:48:11.363Z,9.36
2022-11-03T02:50:37.888Z,9.34
2022-11-03T02:53:04.514Z,9.30
2022-11-03T02:55:35.802Z,9.22
2022-11-03T02:58:08.155Z,9.20
2022-11-03T03:00:40.993Z,9.10
2022-11-03T03:03:16.630Z,9.19
2022-11-03T03:05:45.504Z,9.11
2022-11-03T03:08:12.963Z,9.21
2022-11-03T03:10:41.502Z,9.24
2022-11-03T03:13:10.845Z,9.21
2022-11-03T03:16:09.594Z,9.27
2022-11-03T03:18:48.999Z,9.16
2022-11-03T03:21:19.888Z,9.21
2022-11-03T03:23:51.421Z,9.34
2022-11-03T03:26:23.398Z,9.26
2022-11-03T03:28:53.852Z,9.24
2022-11-03T03:31:21.604Z,9.26
2022-11-03T03:33:49.317Z,9.32
2022-11-03T03:36:17.900Z,9.26
2022-11-03T03:38:48.990Z,9.35
2022-11-03T03:41:22.027Z,9.33
2022-11-03T03:43:50.185Z,9.29
2022-11-03T03:46:17.221Z,9.19
2022-11-03T03:48:43.664Z,9.19
2022-11-03T03:51:11.491Z,9.27
2022-11-03T03:53:37.937Z,9.18
2022-11-03T03:56:05.803Z,9.30
2022-11-03T03:58:32.324Z,9.25
2022-11-03T04:00:58.837Z,9.17
2022-11-03T04:03:26.113Z,9.21
2022-11-03T04:05:55.559Z,9.10
2022-11-03T04:08:22.001Z,9.15
2022-11-03T04:11:07.023Z,9.20
2022-11-03T04:13:52.083Z,9.17
2022-11-03T04:16:37.096Z,9.21
2022-11-03T04:19:22.126Z,9.20
2022-11-03T04:22:07.239Z,9.12
2022-11-03T04:24:33.732Z,9.10
2022-11-03T04:27:17.797Z,9.10
2022-11-03T04:29:44.629Z,9.04
2022-11-03T04:32:16.197Z,9.03
2022-11-03T04:34:42.916Z,8.91
2022-11-03T04:37:12.378Z,9.01
2022-11-03T04:39:38.859Z,9.01
2022-11-03T04:42:20.041Z,8.98
2022-11-03T04:44:47.395Z,8.99
2022-11-03T04:47:15.342Z,8.99
2022-11-03T04:49:42.620Z,9.01
2022-11-03T04:52:20.529Z,8.97
2022-11-03T04:54:48.451Z,9.01
2022-11-03T04:57:16.189Z,8.92
2022-11-03T04:59:47.688Z,8.93
2022-11-03T05:02:19.269Z,9.00
2022-11-03T05:04:46.016Z,9.02
2022-11-03T05:07:23.816Z,9.04
2022-11-03T05:09:50.767Z,9.15
2022-11-03T05:12:18.220Z,9.10
2022-11-03T05:14:44.912Z,9.09
2022-11-03T05:17:23.893Z,9.08
2022-11-03T05:20:04.186Z,9.09
2022-11-03T05:22:39.620Z,9.12
2022-11-03T05:25:33.970Z,9.24
2022-11-03T05:28:00.569Z,9.17
2022-11-03T05:30:27.030Z,9.26
2022-11-03T05:32:53.487Z,9.33
2022-11-03T05:35:22.802Z,9.33
2022-11-03T05:37:50.188Z,9.44
2022-11-03T05:40:24.488Z,9.49
2022-11-03T05:42:57.257Z,9.47
2022-11-03T05:45:27.103Z,9.43
2022-11-03T05:47:54.561Z,9.47
2022-11-03T05:50:28.792Z,9.52
2022-11-03T05:52:58.748Z,9.58
2022-11-03T05:55:27.822Z,9.59
2022-11-03T05:57:57.969Z,9.58
2022-11-03T06:00:37.751Z,9.57
2022-11-03T06:03:05.014Z,9.66
2022-11-03T06:05:33.472Z,9.62
2022-11-03T06:08:06.555Z,9.71
2022-11-03T06:10:40.273Z,9.69
2022-11-03T06:13:25.435Z,9.69
2022-11-03T06:15:58.466Z,9.80
2022-11-03T06:18:35.201Z,9.76
2022-11-03T06:21:22.836Z,9.75
2022-11-03T06:23:49.282Z,9.84
2022-11-03T06:26:24.484Z,9.72
2022-11-03T06:28:51.374Z,9.79
2022-11-03T06:31:24.865Z,9.76
2022-11-03T06:33:52.775Z,9.75
2022-11-03T06:36:21.403Z,9.75
2022-11-03T06:38:52.820Z,9.77
2022-11-03T06:41:30.787Z,9.75
2022-11-03T06:43:58.350Z,9.88
2022-11-03T06:46:25.820Z,9.84
2022-11-03T06:48:53.395Z,9.88
2022-11-03T06:51:22.227Z,9.90
2022-11-03T06:53:50.392Z,9.92
2022-11-03T06:56:20.337Z,9.94
2022-11-03T06:58:48.852Z,9.97
2022-11-03T07:01:18.834Z,9.96
2022-11-03T07:03:45.826Z,9.89
2022-11-03T07:06:20.259Z,9.92
2022-11-03T07:08:48.673Z,9.83
2022-11-03T07:11:18.919Z,9.90
2022-11-03T07:13:46.991Z,9.86
2022-11-03T07:16:21.462Z,9.94
2022-11-03T07:18:47.917Z,9.81
2022-11-03T07:21:31.361Z,9.85
2022-11-03T07:24:00.109Z,9.87
2022-11-03T07:26:27.300Z,9.91
2022-11-03T07:28:54.052Z,9.96
2022-11-03T07:31:22.788Z,10.02
2022-11-03T07:33:49.569Z,9.98
2022-11-03T07:36:22.313Z,9.96
2022-11-03T07:38:52.987Z,9.97
2022-11-03T07:41:29.516Z,10.09
2022-11-03T07:44:00.011Z,10.03
2022-11-03T07:46:27.076Z,10.05
2022-11-03T07:48:57.736Z,10.10
2022-11-03T07:51:27.245Z,10.09
2022-11-03T07:53:57.118Z,10.09
2022-11-03T07:56:29.273Z,10.19
2022-11-03T07:58:59.660Z,10.13
2022-11-03T08:01:37.742Z,10.06
2022-11-03T08:04:06.290Z,10.16
2022-11-03T08:06:32.881Z,10.20
2022-11-03T08:08:59.351Z,10.11
2022-11-03T08:11:28.982Z,10.16
2022-11-03T08:13:56.502Z,10.27
2022-11-03T08:16:22.977Z,10.31
2022-11-03T08:18:49.751Z,10.37
2022-11-03T08:21:17.360Z,10.34
2022-11-03T08:23:47.318Z,10.42
2022-11-03T08:26:15.014Z,10.31
2022-11-03T08:28:41.539Z,10.26
2022-11-03T08:31:12.270Z,10.38
2022-11-03T08:33:39.595Z,10.34
2022-11-03T08:36:06.402Z,10.45
2022-11-03T08:38:32.871Z,10.50
2022-11-03T08:40:59.440Z,10.63
2022-11-03T08:43:26.191Z,10.78
2022-11-03T08:45:53.744Z,10.84
2022-11-03T08:48:27.369Z,11.02
2022-11-03T08:50:56.643Z,11.09
2022-11-03T08:53:24.228Z,10.95
2022-11-03T08:55:50.682Z,10.86
2022-11-03T08:58:17.181Z,10.92
2022-11-03T09:00:43.635Z,11.00
2022-11-03T09:03:10.191Z,11.14
2022-11-03T09:05:36.718Z,11.09
2022-11-03T09:10:49.606Z,11.13
2022-11-03T09:13:16.066Z,11.21
2022-11-03T09:15:42.529Z,11.25
2022-11-03T09:18:09.279Z,11.35
2022-11-03T09:20:36.081Z,11.60
2022-11-03T09:23:02.581Z,11.61
2022-11-03T09:25:29.102Z,11.65
2022-11-03T09:27:55.566Z,11.69
2022-11-03T09:30:22.142Z,11.85
2022-11-03T09:32:48.632Z,12.22
2022-11-03T09:35:16.283Z,12.20
2022-11-03T09:37:43.065Z,12.19
2022-11-03T09:40:10.895Z,12.41
2022-11-03T09:42:38.179Z,12.51
2022-11-03T09:45:05.923Z,12.61
2022-11-03T09:47:34.051Z,12.59
2022-11-03T09:50:00.871Z,12.54
2022-11-03T09:52:27.593Z,12.38
2022-11-03T09:54:55.542Z,12.48
2022-11-03T09:57:22.571Z,12.67
2022-11-03T09:59:50.238Z,12.59
2022-11-03T10:02:43.304Z,12.50
2022-11-03T10:05:13.820Z,12.53
2022-11-03T10:07:40.413Z,12.49
2022-11-03T10:10:07.188Z,12.64
2022-11-03T10:12:36.685Z,12.50
2022-11-03T10:15:03.462Z,12.36
2022-11-03T10:17:30.907Z,12.49
2022-11-03T10:19:58.318Z,12.47
2022-11-03T10:22:24.793Z,12.63
2022-11-03T10:25:30.027Z,12.45
2022-11-03T10:28:15.153Z,12.49
2022-11-03T10:31:11.128Z,12.58
2022-11-03T10:33:40.426Z,12.53
2022-11-03T10:36:16.761Z,12.54
2022-11-03T10:38:43.678Z,12.53
2022-11-03T10:41:31.177Z,12.40
2022-11-03T10:44:12.768Z,12.65
2022-11-03T10:46:55.547Z,12.78
2022-11-03T10:49:22.115Z,12.95
2022-11-03T10:51:50.818Z,12.97
2022-11-03T10:54:19.697Z,12.99
2022-11-03T10:56:46.790Z,12.96
2022-11-03T10:59:31.763Z,12.98
2022-11-03T11:01:59.450Z,12.96
2022-11-03T11:04:26.118Z,12.83
2022-11-03T11:06:52.755Z,13.00
2022-11-03T11:09:27.628Z,12.87
2022-11-03T11:12:15.879Z,12.97
2022-11-03T11:14:59.995Z,13.01
2022-11-03T11:17:46.902Z,13.00
2022-11-03T11:20:22.036Z,12.88
2022-11-03T11:22:49.547Z,12.91
2022-11-03T11:25:17.929Z,12.92
2022-11-03T11:27:44.295Z,13.10
2022-11-03T11:30:30.541Z,12.88
2022-11-03T11:33:01.765Z,13.16
2022-11-03T11:35:28.105Z,13.15
2022-11-03T11:37:54.737Z,13.37
2022-11-03T11:40:24.133Z,13.73
2022-11-03T11:43:11.033Z,14.23
2022-11-03T11:46:15.170Z,14.46
2022-11-03T11:48:41.707Z,14.24
2022-11-03T11:51:10.074Z,14.41
2022-11-03T11:53:48.160Z,14.39
2022-11-03T11:56:17.916Z,14.33
2022-11-03T11:58:49.880Z,14.31
2022-11-03T12:01:23.137Z,14.16
2022-11-03T12:03:51.237Z,13.74
2022-11-03T12:06:17.864Z,13.71
2022-11-03T12:08:44.626Z,13.62
2022-11-03T12:11:12.363Z,13.54
2022-11-03T12:13:43.927Z,13.07
2022-11-03T12:16:29.065Z,13.43
2022-11-03T12:18:56.103Z,13.24
2022-11-03T12:21:49.359Z,13.32
2022-11-03T12:24:26.140Z,13.25
2022-11-03T12:26:52.599Z,13.19
2022-11-03T12:29:19.048Z,13.12
2022-11-03T12:31:47.201Z,13.18
2022-11-03T12:34:13.655Z,12.99
2022-11-03T12:36:40.155Z,13.04
2022-11-03T12:39:06.612Z,12.93
2022-11-03T12:41:33.132Z,13.01
2022-11-03T12:43:59.669Z,13.10
2022-11-03T12:46:26.238Z,13.30
2022-11-03T12:48:52.807Z,13.34
2022-11-03T12:51:21.373Z,13.28
2022-11-03T12:53:47.873Z,13.19
2022-11-03T12:56:15.849Z,13.76
2022-11-03T12:58:42.412Z,13.73
2022-11-03T13:01:09.341Z,14.20
2022-11-03T13:03:36.144Z,14.66
2022-11-03T13:06:04.703Z,14.37
2022-11-03T13:08:31.810Z,14.70
2022-11-03T13:10:58.676Z,14.43
2022-11-03T13:13:25.450Z,14.30
2022-11-03T13:15:53.067Z,13.99
2022-11-03T13:18:20.345Z,13.96
2022-11-03T13:20:46.944Z,13.67
2022-11-03T13:23:15.289Z,13.37
2022-11-03T13:25:46.358Z,13.49
2022-11-03T13:28:12.949Z,13.48
2022-11-03T13:30:40.358Z,13.20
2022-11-03T13:33:07.188Z,13.34
2022-11-03T13:35:33.913Z,13.33
2022-11-03T13:38:00.459Z,13.06
2022-11-03T13:40:54.862Z,13.29
2022-11-03T13:43:13.392Z,13.09
2022-11-03T13:45:39.836Z,13.06
2022-11-03T13:50:53.650Z,13.01
2022-11-03T13:56:08.859Z,13.30
2022-11-03T14:01:23.635Z,13.17
2022-11-03T14:06:36.821Z,12.93
2022-11-03T14:09:03.367Z,13.12
2022-11-03T14:11:48.332Z,12.91
2022-11-03T14:14:14.830Z,12.96
2022-11-03T14:16:41.311Z,12.94
2022-11-03T14:19:07.867Z,12.84
2022-11-03T14:21:37.215Z,12.81
2022-11-03T14:24:05.346Z,12.87
2022-11-03T14:26:42.221Z,12.75
2022-11-03T14:29:09.463Z,12.65
2022-11-03T14:31:35.997Z,12.76
2022-11-03T14:34:02.465Z,12.69
2022-11-03T14:36:29.047Z,12.71
2022-11-03T14:38:55.625Z,12.53
2022-11-03T14:41:40.723Z,12.61
2022-11-03T14:44:07.216Z,12.69
2022-11-03T14:46:33.700Z,12.69
2022-11-03T14:49:01.749Z,12.51
2022-11-03T14:51:29.077Z,12.54
2022-11-03T14:53:56.833Z,12.54
2022-11-03T14:56:23.572Z,12.51
2022-11-03T14:58:50.141Z,12.49
2022-11-03T15:01:19.903Z,12.55
2022-11-03T15:03:46.636Z,12.62
2022-11-03T15:06:13.130Z,12.66
2022-11-03T15:08:40.293Z,12.52
2022-11-03T15:11:08.199Z,12.62
2022-11-03T15:13:39.640Z,12.67
2022-11-03T15:16:11.384Z,12.53
2022-11-03T15:18:37.845Z,12.53
2022-11-03T15:21:04.799Z,12.53
2022-11-03T15:26:18.044Z,12.62
2022-11-03T15:28:44.515Z,12.55
2022-11-03T15:31:10.981Z,12.65
2022-11-03T15:33:37.437Z,12.61
2022-11-03T15:36:04.589Z,12.65
2022-11-03T15:38:31.275Z,12.69
2022-11-03T15:41:15.350Z,12.68
2022-11-03T15:43:43.256Z,12.64
2022-11-03T15:46:10.461Z,12.61
2022-11-03T15:48:37.305Z,12.52
2022-11-03T15:51:04.188Z,12.48
2022-11-03T15:53:30.752Z,12.56
2022-11-03T15:55:57.205Z,12.65
2022-11-03T15:58:23.727Z,12.49
2022-11-03T16:00:50.225Z,12.58
2022-11-03T16:03:16.791Z,12.46
2022-11-03T16:05:43.347Z,12.45
2022-11-03T16:08:10.483Z,12.39
2022-11-03T16:10:37.207Z,12.39
2022-11-03T16:13:03.668Z,12.27
2022-11-03T16:15:30.127Z,12.26
2022-11-03T16:18:02.549Z,12.19
2022-11-03T16:20:30.603Z,12.31
2022-11-03T16:22:57.507Z,12.23
2022-11-03T16:25:24.370Z,12.39
2022-11-03T16:27:50.915Z,12.20
2022-11-03T16:30:17.510Z,12.20
2022-11-03T16:32:44.020Z,12.41
2022-11-03T16:35:10.485Z,12.29
2022-11-03T16:37:37.403Z,12.43
2022-11-03T16:40:04.951Z,12.26
2022-11-03T16:42:38.062Z,12.25
2022-11-03T16:45:15.138Z,12.29
2022-11-03T16:47:41.596Z,12.11
2022-11-03T16:50:08.154Z,12.23
2022-11-03T16:52:34.668Z,12.25
2022-11-03T16:55:01.173Z,12.24
2022-11-03T16:57:27.634Z,12.13
2022-11-03T16:59:54.093Z,12.15
2022-11-03T17:02:20.631Z,12.09
2022-11-03T17:04:47.110Z,12.07
2022-11-03T17:07:13.560Z,11.92
2022-11-03T17:09:40.003Z,11.90
2022-11-03T17:12:06.605Z,11.87
2022-11-03T17:14:33.053Z,11.78
2022-11-03T17:16:59.508Z,11.83
2022-11-03T17:19:25.995Z,11.77
2022-11-03T17:21:52.473Z,11.77
2022-11-03T17:24:18.981Z,11.64
2022-11-03T17:26:56.113Z,11.71
2022-11-03T17:29:29.050Z,11.58
2022-11-03T17:31:55.504Z,11.66
2022-11-03T17:34:24.017Z,11.61
2022-11-03T17:36:50.870Z,11.56
2022-11-03T17:39:28.896Z,11.54
2022-11-03T17:42:01.900Z,11.65
2022-11-03T17:44:28.354Z,11.55
2022-11-03T17:46:54.837Z,11.57
2022-11-03T17:49:21.323Z,11.48
2022-11-03T17:51:47.776Z,11.36
2022-11-03T17:54:15.866Z,11.29
2022-11-03T17:56:42.535Z,11.28
2022-11-03T17:59:14.461Z,11.40
2022-11-03T18:01:41.030Z,11.29
2022-11-03T18:06:41.754Z,11.25
2022-11-03T18:09:08.376Z,11.25
2022-11-03T18:11:56.517Z,11.24
2022-11-03T18:14:23.723Z,11.16
2022-11-03T18:16:51.129Z,11.24
2022-11-03T18:19:17.880Z,11.22
2022-11-03T18:21:44.498Z,11.19
2022-11-03T18:24:18.944Z,11.21
2022-11-03T18:26:45.522Z,11.20
2022-11-03T18:29:11.988Z,11.16
2022-11-03T18:31:43.523Z,11.16
2022-11-03T18:34:14.780Z,11.20
2022-11-03T18:36:41.483Z,11.06
2022-11-03T18:39:11.674Z,11.07
2022-11-03T18:41:41.192Z,11.11
2022-11-03T18:44:22.624Z,11.14
2022-11-03T18:46:49.262Z,10.96
2022-11-03T18:49:16.064Z,10.93
2022-11-03T18:51:49.668Z,11.02
2022-11-03T18:54:16.795Z,10.99
2022-11-03T18:56:43.416Z,10.92
2022-11-03T18:59:27.921Z,10.91
2022-11-03T19:01:54.923Z,10.92
2022-11-03T19:04:21.680Z,10.89
2022-11-03T19:06:49.359Z,10.86
2022-11-03T19:09:19.577Z,10.78
2022-11-03T19:11:47.547Z,10.71
2022-11-03T19:14:21.273Z,10.77
2022-11-03T19:17:17.189Z,10.74
2022-11-03T19:22:14.277Z,10.71
2022-11-03T19:24:43.524Z,10.78
2022-11-03T19:27:25.748Z,10.62
2022-11-03T19:29:52.566Z,10.61
2022-11-03T19:32:25.649Z,10.68
2022-11-03T19:34:57.776Z,10.56
2022-11-03T19:37:24.796Z,10.61
2022-11-03T19:39:51.294Z,10.56
2022-11-03T19:42:28.815Z,10.52
2022-11-03T19:44:59.372Z,10.37
2022-11-03T19:47:34.896Z,10.37
2022-11-03T19:50:03.154Z,10.32
2022-11-03T19:52:30.573Z,10.22
2022-11-03T19:54:57.920Z,10.28
2022-11-03T19:57:24.478Z,10.32
2022-11-03T19:59:50.944Z,10.37
2022-11-03T20:02:18.426Z,10.34
2022-11-03T20:04:47.199Z,10.30
2022-11-03T20:07:17.841Z,10.27
2022-11-03T20:09:44.885Z,10.19
2022-11-03T20:12:15.923Z,10.31
2022-11-03T20:14:42.397Z,10.26
2022-11-03T20:17:17.217Z,10.39
2022-11-03T20:19:44.091Z,10.42
2022-11-03T20:22:16.969Z,10.35
2022-11-03T20:24:44.749Z,10.32
2022-11-03T20:27:11.702Z,10.34
2022-11-03T20:29:39.223Z,10.31
2022-11-03T20:32:05.661Z,10.35
2022-11-03T20:34:32.122Z,10.30
2022-11-03T20:37:02.878Z,10.25
2022-11-03T20:39:31.988Z,10.32
2022-11-03T20:41:58.576Z,10.26
2022-11-03T20:44:25.044Z,10.27
2022-11-03T20:46:51.547Z,10.29
2022-11-03T20:49:17.995Z,10.31
2022-11-03T20:51:45.715Z,10.27
2022-11-03T20:54:17.904Z,10.29
2022-11-03T20:56:44.607Z,10.19
2022-11-03T20:59:16.727Z,10.10
2022-11-03T21:01:43.738Z,10.18
2022-11-03T21:04:32.331Z,10.22
2022-11-03T21:06:58.929Z,10.15
2022-11-03T21:09:25.387Z,10.14
2022-11-03T21:11:52.457Z,10.20
2022-11-03T21:14:22.301Z,10.21
2022-11-03T21:17:07.566Z,10.16
2022-11-03T21:19:52.532Z,10.31
2022-11-03T21:22:57.667Z,10.34
2022-11-03T21:25:25.001Z,10.30
2022-11-03T21:27:53.470Z,10.31
2022-11-03T21:30:20.144Z,10.26
2022-11-03T21:32:48.015Z,10.21
2022-11-03T21:35:17.285Z,10.14
2022-11-03T21:37:43.752Z,10.12
2022-11-03T21:40:11.023Z,10.14
2022-11-03T21:42:56.059Z,10.05
2022-11-03T21:45:22.507Z,10.05
2022-11-03T21:48:13.105Z,9.92
2022-11-03T21:50:41.164Z,9.96
2022-11-03T21:53:08.143Z,9.93
2022-11-03T21:55:35.104Z,9.99
2022-11-03T21:58:02.153Z,9.94
2022-11-03T22:00:28.745Z,9.99
2022-11-03T22:02:55.652Z,9.99
2022-11-03T22:05:22.106Z,9.89
2022-11-03T22:07:48.574Z,10.00
2022-11-03T22:10:15.018Z,9.99
2022-11-03T22:12:41.471Z,9.99
2022-11-03T22:15:27.055Z,9.91
2022-11-03T22:17:53.505Z,9.98
2022-11-03T22:20:38.681Z,9.92
2022-11-03T22:23:23.901Z,10.06
2022-11-03T22:26:09.017Z,9.95
2022-11-03T22:28:35.469Z,9.95
2022-11-03T22:31:30.649Z,10.04
2022-11-03T22:34:15.630Z,10.06
2022-11-03T22:36:42.069Z,9.99
2022-11-03T22:39:27.116Z,9.92
2022-11-03T22:42:12.010Z,10.01
2022-11-03T22:44:56.932Z,10.04
2022-11-03T22:47:23.417Z,10.00
2022-11-03T22:49:49.871Z,10.01
2022-11-03T22:52:16.374Z,10.09
2022-11-03T22:54:42.813Z,10.04
2022-11-03T22:57:11.314Z,10.02
2022-11-03T22:59:37.770Z,10.00
2022-11-03T23:02:04.382Z,9.95
2022-11-03T23:04:30.949Z,10.07
2022-11-03T23:06:57.409Z,10.10
2022-11-03T23:09:23.840Z,10.05
2022-11-03T23:11:51.329Z,10.12
2022-11-03T23:14:18.260Z,10.06
2022-11-03T23:16:45.001Z,10.12
2022-11-03T23:19:31.642Z,10.01
2022-11-03T23:21:58.350Z,10.07
2022-11-03T23:24:45.391Z,10.07
2022-11-03T23:27:12.833Z,10.04
2022-11-03T23:29:39.299Z,10.21
2022-11-03T23:32:05.812Z,10.14
2022-11-03T23:34:32.301Z,10.22
2022-11-03T23:36:59.328Z,10.21
2022-11-03T23:39:25.819Z,10.13
2022-11-03T23:41:52.263Z,10.22
2022-11-03T23:44:18.806Z,10.10
2022-11-03T23:47:03.885Z,10.21
2022-11-03T23:49:30.451Z,10.27
2022-11-03T23:51:57.091Z,10.23
2022-11-03T23:54:23.706Z,10.16
2022-11-03T23:57:08.713Z,10.19
2022-11-03T23:59:35.259Z,10.16
